createdAt,value
2023-03-23T15:59:43.867Z,22.07
2023-03-23T16:02:54.170Z,21.90
2023-03-23T16:05:58.199Z,22.10
2023-03-23T16:09:02.004Z,22.32
2023-03-23T16:12:05.206Z,22.48
2023-03-23T16:15:08.987Z,21.97
2023-03-23T16:18:23.240Z,22.27
2023-03-23T16:21:26.968Z,22.28
2023-03-23T16:24:30.157Z,22.14
2023-03-23T16:27:33.707Z,22.29
2023-03-23T16:30:37.046Z,22.46
2023-03-23T16:33:40.431Z,22.30
2023-03-23T16:36:43.684Z,22.44
2023-03-23T16:39:47.018Z,22.66
2023-03-23T16:42:50.526Z,22.87
2023-03-23T16:45:59.153Z,22.91
2023-03-23T16:49:02.495Z,22.85
2023-03-23T16:52:05.925Z,22.71
2023-03-23T16:55:10.188Z,22.83
2023-03-23T16:58:16.898Z,22.98
2023-03-23T17:01:21.400Z,22.92
2023-03-23T17:04:24.686Z,22.94
2023-03-23T17:07:28.230Z,23.11
2023-03-23T17:10:32.979Z,23.20
2023-03-23T17:13:36.256Z,23.18
2023-03-23T17:16:39.601Z,23.20
2023-03-23T17:19:42.929Z,23.32
2023-03-23T17:22:46.355Z,23.16
2023-03-23T17:25:49.585Z,23.21
2023-03-23T17:28:52.780Z,23.21
2023-03-23T17:31:58.410Z,23.52
2023-03-23T17:35:01.990Z,23.40
2023-03-23T17:38:05.654Z,23.29
2023-03-23T17:41:09.005Z,23.21
2023-03-23T17:44:12.185Z,23.67
2023-03-23T17:47:15.719Z,23.86
2023-03-23T17:50:19.092Z,23.87
2023-03-23T17:53:22.337Z,23.49
2023-03-23T17:56:27.185Z,23.39
2023-03-23T17:59:31.182Z,23.58
2023-03-23T18:02:34.668Z,23.66
2023-03-23T18:05:38.363Z,23.63
2023-03-23T18:08:41.632Z,24.04
2023-03-23T18:11:44.944Z,23.74
2023-03-23T18:14:49.755Z,23.96
2023-03-23T18:17:53.089Z,24.01
2023-03-23T18:20:58.274Z,23.49
2023-03-23T18:24:01.513Z,23.48
2023-03-23T18:27:04.816Z,23.33
2023-03-23T18:30:09.237Z,23.64
2023-03-23T18:33:12.586Z,23.97
2023-03-23T18:36:18.913Z,24.02
2023-03-23T18:39:22.252Z,23.80
2023-03-23T18:42:25.539Z,24.14
2023-03-23T18:45:28.758Z,24.42
2023-03-23T18:48:32.196Z,24.92
2023-03-23T18:51:35.420Z,24.89
2023-03-23T18:54:38.683Z,24.83
2023-03-23T18:57:41.947Z,24.53
2023-03-23T19:00:46.038Z,24.81
2023-03-23T19:03:49.408Z,24.80
2023-03-23T19:06:52.860Z,25.15
2023-03-23T19:09:56.096Z,25.58
2023-03-23T19:12:59.393Z,25.18
2023-03-23T19:16:02.994Z,25.24
2023-03-23T19:19:07.228Z,24.90
2023-03-23T19:22:10.600Z,25.19
2023-03-23T19:25:13.911Z,25.41
2023-03-23T19:31:24.360Z,25.50
2023-03-23T19:34:28.588Z,25.41
2023-03-23T19:37:34.599Z,25.44
2023-03-23T19:40:42.498Z,25.78
2023-03-23T19:43:46.066Z,26.10
2023-03-23T19:46:49.680Z,26.13
2023-03-23T19:49:55.247Z,26.08
2023-03-23T19:53:00.553Z,25.86
2023-03-23T19:56:05.134Z,26.04
2023-03-23T19:59:08.530Z,26.41
2023-03-23T20:02:15.244Z,26.27
2023-03-23T20:05:18.874Z,26.23
2023-03-23T20:08:22.384Z,26.47
2023-03-23T20:11:25.710Z,26.12
2023-03-23T20:14:30.674Z,26.45
2023-03-23T20:17:34.258Z,26.87
2023-03-23T20:20:37.671Z,26.84
2023-03-23T20:23:42.673Z,26.30
2023-03-23T20:26:46.248Z,26.53
2023-03-23T20:29:49.459Z,26.58
2023-03-23T20:32:52.763Z,26.11
2023-03-23T20:35:56.234Z,26.24
2023-03-23T20:38:59.804Z,26.06
2023-03-23T20:42:04.094Z,26.17
2023-03-23T20:45:07.854Z,26.00
2023-03-23T20:48:11.198Z,26.19
2023-03-23T20:51:16.674Z,26.54
2023-03-23T20:54:20.997Z,26.25
2023-03-23T20:57:26.669Z,26.65
2023-03-23T21:00:29.923Z,26.28
2023-03-23T21:03:40.044Z,26.37
2023-03-23T21:06:44.956Z,26.84
2023-03-23T21:09:48.175Z,26.96
2023-03-23T21:12:51.365Z,27.42
2023-03-23T21:15:55.066Z,27.35
2023-03-23T21:18:58.618Z,26.80
2023-03-23T21:22:01.987Z,27.13
2023-03-23T21:25:05.361Z,27.00
2023-03-23T21:28:08.731Z,27.38
2023-03-23T21:31:12.168Z,26.86
2023-03-23T21:34:16.205Z,27.08
2023-03-23T21:37:19.627Z,26.64
2023-03-23T21:40:22.940Z,26.64
2023-03-23T21:43:27.711Z,26.92
2023-03-23T21:46:31.219Z,27.10
2023-03-23T21:49:34.516Z,27.05
2023-03-23T21:52:44.553Z,26.94
2023-03-23T21:55:50.942Z,27.28
2023-03-23T21:58:54.849Z,27.03
2023-03-23T22:02:00.451Z,27.23
2023-03-23T22:05:03.737Z,27.12
2023-03-23T22:08:08.125Z,27.14
2023-03-23T22:11:17.736Z,27.29
2023-03-23T22:14:20.961Z,27.02
2023-03-23T22:17:24.259Z,26.67
2023-03-23T22:20:27.840Z,27.08
2023-03-23T22:23:31.102Z,27.10
2023-03-23T22:26:34.380Z,26.88
2023-03-23T22:29:37.836Z,26.71
2023-03-23T22:32:41.191Z,26.17
2023-03-23T22:35:45.623Z,26.19
2023-03-23T22:38:50.606Z,26.28
2023-03-23T22:41:53.919Z,26.06
2023-03-23T22:44:57.188Z,26.22
2023-03-23T22:48:00.533Z,26.17
2023-03-23T22:51:03.905Z,26.16
2023-03-23T22:54:07.707Z,25.97
2023-03-23T22:57:10.994Z,25.98
2023-03-23T23:00:15.200Z,26.08
2023-03-23T23:03:18.763Z,26.17
2023-03-23T23:06:22.566Z,26.11
2023-03-23T23:09:25.819Z,26.16
2023-03-23T23:12:30.106Z,26.21
2023-03-23T23:15:33.425Z,26.25
2023-03-23T23:18:37.335Z,26.34
2023-03-23T23:21:40.694Z,26.10
2023-03-23T23:24:43.996Z,26.03
2023-03-23T23:27:47.253Z,26.15
2023-03-23T23:30:51.499Z,26.13
2023-03-23T23:33:57.066Z,26.13
2023-03-23T23:37:00.561Z,25.98
2023-03-23T23:40:04.671Z,25.86
2023-03-23T23:43:08.539Z,25.83
2023-03-23T23:46:11.839Z,25.78
2023-03-23T23:49:15.385Z,25.61
2023-03-23T23:52:18.828Z,25.49
2023-03-23T23:55:22.884Z,25.40
2023-03-23T23:58:26.092Z,25.44
